createdAt,value
2022-08-17T00:02:26.290Z,99621.41
2022-08-17T00:05:31.568Z,99623.00
2022-08-17T00:08:39.804Z,99615.66
2022-08-17T00:11:43.771Z,99619.97
2022-08-17T00:15:10.371Z,99610.78
2022-08-17T00:19:01.245Z,99614.63
2022-08-17T00:22:29.971Z,99611.94
2022-08-17T00:25:05.212Z,99615.16
2022-08-17T00:28:08.157Z,99615.78
2022-08-17T00:31:11.429Z,99612.75
2022-08-17T00:34:13.895Z,99612.53
2022-08-17T00:37:16.491Z,99612.69
2022-08-17T00:40:19.103Z,99611.69
2022-08-17T00:43:38.408Z,99613.50
2022-08-17T00:46:43.224Z,99617.00
2022-08-17T00:49:46.870Z,99609.84
2022-08-17T00:52:56.837Z,99618.81
2022-08-17T00:56:02.145Z,99619.34
2022-08-17T00:59:05.675Z,99623.25
2022-08-17T01:02:11.123Z,99625.94
2022-08-17T01:05:25.892Z,99632.38
2022-08-17T01:08:30.062Z,99637.63
2022-08-17T01:11:34.891Z,99638.41
2022-08-17T01:14:39.477Z,99635.87
2022-08-17T01:17:43.240Z,99637.50
2022-08-17T01:20:49.208Z,99645.69
2022-08-17T01:23:52.201Z,99644.22
2022-08-17T01:26:56.683Z,99649.41
2022-08-17T01:30:02.916Z,99645.69
2022-08-17T01:33:06.113Z,99642.16
2022-08-17T01:36:09.903Z,99645.53
2022-08-17T01:39:21.897Z,99639.03
2022-08-17T01:42:31.787Z,99639.50
2022-08-17T01:45:38.875Z,99635.66
2022-08-17T01:48:44.162Z,99638.72
2022-08-17T01:51:46.944Z,99631.41
2022-08-17T01:54:51.242Z,99643.56
2022-08-17T01:57:54.109Z,99640.91
2022-08-17T02:01:00.805Z,99638.34
2022-08-17T02:04:04.886Z,99637.75
2022-08-17T02:07:08.534Z,99641.47
2022-08-17T02:10:18.971Z,99638.00
2022-08-17T02:13:22.693Z,99643.09
2022-08-17T02:16:27.868Z,99641.63
2022-08-17T02:19:40.711Z,99639.56
2022-08-17T02:22:45.354Z,99631.81
2022-08-17T02:25:48.834Z,99627.53
2022-08-17T02:28:51.686Z,99629.44
2022-08-17T02:31:56.954Z,99623.62
2022-08-17T02:35:00.111Z,99633.22
2022-08-17T02:38:02.266Z,99630.53
2022-08-17T02:41:05.715Z,99632.28
2022-08-17T02:44:08.067Z,99625.66
2022-08-17T02:47:11.258Z,99634.34
2022-08-17T02:50:15.478Z,99638.28
2022-08-17T02:53:19.790Z,99630.97
2022-08-17T02:56:25.120Z,99626.84
2022-08-17T02:59:27.634Z,99635.78
2022-08-17T03:02:29.843Z,99635.06
2022-08-17T03:05:37.070Z,99627.72
2022-08-17T03:08:40.983Z,99631.41
2022-08-17T03:11:44.007Z,99634.03
2022-08-17T03:14:46.885Z,99633.28
2022-08-17T03:17:49.175Z,99635.06
2022-08-17T03:20:55.640Z,99633.66
2022-08-17T03:23:58.618Z,99641.44
2022-08-17T03:27:00.834Z,99635.09
2022-08-17T03:30:04.689Z,99635.53
2022-08-17T03:33:07.552Z,99647.59
2022-08-17T03:36:10.200Z,99643.87
2022-08-17T03:39:13.864Z,99654.28
2022-08-17T03:42:32.095Z,99656.69
2022-08-17T03:45:54.678Z,99658.63
2022-08-17T03:49:15.911Z,99661.62
2022-08-17T03:52:37.638Z,99663.47
2022-08-17T03:55:58.753Z,99665.47
2022-08-17T03:59:01.643Z,99658.97
2022-08-17T04:02:12.138Z,99661.72
2022-08-17T04:05:15.840Z,99671.88
2022-08-17T04:08:20.216Z,99662.25
2022-08-17T04:11:22.467Z,99666.50
2022-08-17T04:14:25.319Z,99670.56
2022-08-17T04:17:28.602Z,99668.72
2022-08-17T04:20:32.413Z,99673.37
2022-08-17T04:23:37.294Z,99675.09
2022-08-17T04:26:53.157Z,99677.59
2022-08-17T04:29:57.668Z,99681.34
2022-08-17T04:33:07.384Z,99683.09
2022-08-17T04:36:11.404Z,99683.38
2022-08-17T04:39:13.517Z,99684.59
2022-08-17T04:42:17.724Z,99687.97
2022-08-17T04:45:21.330Z,99690.50
2022-08-17T04:48:36.207Z,99692.75
2022-08-17T04:51:56.329Z,99694.97
2022-08-17T04:55:03.039Z,99689.94
2022-08-17T04:58:06.793Z,99705.72
2022-08-17T05:01:13.517Z,99707.47
2022-08-17T05:04:34.137Z,99713.03
2022-08-17T05:07:38.200Z,99717.47
2022-08-17T05:10:45.164Z,99715.66
2022-08-17T05:13:50.628Z,99709.34
2022-08-17T05:16:55.459Z,99716.81
2022-08-17T05:19:58.085Z,99717.28
2022-08-17T05:23:02.509Z,99717.75
2022-08-17T05:26:06.262Z,99723.25
2022-08-17T05:29:12.546Z,99722.06
2022-08-17T05:32:39.110Z,99714.72
2022-08-17T05:35:42.702Z,99719.06
2022-08-17T05:38:45.504Z,99715.97
2022-08-17T05:41:48.906Z,99715.53
2022-08-17T05:44:51.076Z,99716.38
2022-08-17T05:47:53.538Z,99713.88
2022-08-17T05:51:05.440Z,99719.19
2022-08-17T05:54:19.354Z,99719.78
2022-08-17T05:57:24.624Z,99721.53
2022-08-17T06:00:42.137Z,99722.53
2022-08-17T06:03:59.429Z,99729.84
2022-08-17T06:07:15.384Z,99719.25
2022-08-17T06:10:40.712Z,99723.59
2022-08-17T06:13:52.179Z,99720.25
2022-08-17T06:17:00.899Z,99726.78
2022-08-17T06:20:08.761Z,99734.75
2022-08-17T06:23:13.026Z,99735.13
2022-08-17T06:26:20.167Z,99739.50
2022-08-17T06:29:35.546Z,99738.06
2022-08-17T06:32:45.064Z,99749.72
2022-08-17T06:36:09.231Z,99747.19
2022-08-17T06:39:22.918Z,99743.06
2022-08-17T06:43:02.424Z,99756.94
2022-08-17T06:46:02.239Z,99747.09
2022-08-17T06:49:12.481Z,99754.69
2022-08-17T06:52:46.310Z,99749.53
2022-08-17T06:56:01.193Z,99760.53
2022-08-17T06:59:06.011Z,99753.91
2022-08-17T07:02:10.396Z,99753.38
2022-08-17T07:05:14.998Z,99751.84
2022-08-17T07:08:39.756Z,99754.19
2022-08-17T07:11:48.210Z,99760.75
2022-08-17T07:14:54.114Z,99757.59
2022-08-17T07:17:59.753Z,99763.97
2022-08-17T07:21:09.291Z,99757.41
2022-08-17T07:24:32.061Z,99771.78
2022-08-17T07:27:39.033Z,99772.75
2022-08-17T07:30:53.786Z,99775.22
2022-08-17T07:34:14.850Z,99772.00
2022-08-17T07:37:19.938Z,99781.31
2022-08-17T07:40:26.924Z,99782.34
2022-08-17T07:43:41.640Z,99786.56
2022-08-17T07:47:10.076Z,99783.34
2022-08-17T07:50:26.411Z,99775.28
2022-08-17T07:53:29.323Z,99772.72
2022-08-17T07:56:38.331Z,99766.75
2022-08-17T08:00:03.565Z,99781.09
2022-08-17T08:03:15.022Z,99782.88
2022-08-17T08:06:20.432Z,99788.94
2022-08-17T08:09:34.604Z,99784.66
2022-08-17T08:12:52.748Z,99771.87
2022-08-17T08:16:12.003Z,99774.50
2022-08-17T08:19:20.920Z,99775.59
2022-08-17T08:22:29.899Z,99771.16
2022-08-17T08:25:53.394Z,99773.81
2022-08-17T08:29:06.383Z,99775.75
2022-08-17T08:32:23.385Z,99771.19
2022-08-17T08:35:35.384Z,99760.28
2022-08-17T08:38:43.602Z,99770.34
2022-08-17T08:41:59.282Z,99765.44
2022-08-17T08:45:15.446Z,99763.00
2022-08-17T08:48:53.305Z,99769.34
2022-08-17T08:52:00.854Z,99760.16
2022-08-17T08:55:17.091Z,99757.91
2022-08-17T08:58:32.022Z,99745.22
2022-08-17T09:01:45.863Z,99748.66
2022-08-17T09:05:12.735Z,99750.59
2022-08-17T09:08:29.072Z,99752.25
2022-08-17T09:11:31.993Z,99750.94
2022-08-17T09:14:46.434Z,99744.19
2022-08-17T09:18:21.371Z,99748.50
2022-08-17T09:21:23.538Z,99743.66
2022-08-17T09:24:36.643Z,99742.59
2022-08-17T09:27:49.588Z,99745.00
2022-08-17T09:30:53.543Z,99747.44
2022-08-17T09:33:58.956Z,99745.78
2022-08-17T09:37:21.356Z,99750.66
2022-08-17T09:40:26.761Z,99743.63
2022-08-17T09:43:37.826Z,99743.59
2022-08-17T09:46:43.702Z,99746.88
2022-08-17T09:49:49.898Z,99738.50
2022-08-17T09:52:54.905Z,99735.75
2022-08-17T09:55:58.444Z,99732.78
2022-08-17T09:59:06.818Z,99728.66
2022-08-17T10:02:32.415Z,99733.16
2022-08-17T10:05:46.595Z,99740.16
2022-08-17T10:08:52.047Z,99735.88
2022-08-17T10:12:12.743Z,99734.66
2022-08-17T10:15:22.802Z,99734.13
2022-08-17T10:18:24.778Z,99743.50
2022-08-17T10:22:01.389Z,99737.91
2022-08-17T10:25:49.056Z,99736.72
2022-08-17T10:29:12.592Z,99738.03
2022-08-17T10:32:19.755Z,99733.59
2022-08-17T10:35:42.763Z,99731.34
2022-08-17T10:38:46.203Z,99722.81
2022-08-17T10:41:51.005Z,99727.91
2022-08-17T10:44:56.517Z,99729.66
2022-08-17T10:48:05.291Z,99727.94
2022-08-17T10:51:13.177Z,99727.94
2022-08-17T10:54:24.494Z,99732.72
2022-08-17T10:57:29.356Z,99727.31
2022-08-17T11:00:40.223Z,99720.28
2022-08-17T11:03:52.549Z,99718.69
2022-08-17T11:07:02.305Z,99713.69
2022-08-17T11:10:24.101Z,99717.28
2022-08-17T11:13:28.789Z,99713.97
2022-08-17T11:16:37.950Z,99713.84
2022-08-17T11:19:40.169Z,99719.34
2022-08-17T11:22:58.173Z,99713.91
2022-08-17T11:26:04.230Z,99710.41
2022-08-17T11:29:17.413Z,99713.78
2022-08-17T11:32:28.893Z,99704.31
2022-08-17T11:35:40.490Z,99705.44
2022-08-17T11:38:52.596Z,99701.16
2022-08-17T11:42:05.930Z,99689.81
2022-08-17T11:45:32.145Z,99697.63
2022-08-17T11:49:14.260Z,99696.44
2022-08-17T11:52:34.778Z,99696.87
2022-08-17T11:55:57.072Z,99691.72
2022-08-17T11:59:00.799Z,99693.12
2022-08-17T12:02:04.403Z,99688.69
2022-08-17T12:05:09.727Z,99691.16
2022-08-17T12:08:21.648Z,99686.66
2022-08-17T12:12:01.523Z,99680.13
2022-08-17T12:15:11.430Z,99676.44
2022-08-17T12:18:31.965Z,99669.78
2022-08-17T12:21:34.549Z,99662.94
2022-08-17T12:24:44.946Z,99661.97
2022-08-17T12:28:05.500Z,99656.56
2022-08-17T12:31:15.410Z,99658.94
2022-08-17T12:34:19.830Z,99662.72
2022-08-17T12:37:25.171Z,99659.22
2022-08-17T12:40:31.836Z,99655.19
2022-08-17T12:43:35.230Z,99640.38
2022-08-17T12:46:57.488Z,99653.00
2022-08-17T12:50:28.505Z,99644.06
2022-08-17T12:53:31.883Z,99648.47
2022-08-17T12:56:34.400Z,99651.56
2022-08-17T12:59:40.277Z,99650.09
2022-08-17T13:02:44.861Z,99637.13
2022-08-17T13:05:53.473Z,99633.13
2022-08-17T13:08:58.482Z,99639.88
2022-08-17T13:12:00.836Z,99643.06
2022-08-17T13:15:03.183Z,99644.84
2022-08-17T13:18:25.035Z,99636.97
2022-08-17T13:21:30.558Z,99638.25
2022-08-17T13:24:37.793Z,99637.75
2022-08-17T13:27:42.933Z,99639.81
2022-08-17T13:30:45.318Z,99632.53
2022-08-17T13:33:50.406Z,99629.88
2022-08-17T13:37:14.098Z,99627.03
2022-08-17T13:40:16.053Z,99626.78
2022-08-17T13:43:37.745Z,99626.94
2022-08-17T13:46:39.800Z,99623.69
2022-08-17T13:49:48.546Z,99629.59
2022-08-17T13:52:52.372Z,99621.00
2022-08-17T13:56:34.938Z,99629.19
2022-08-17T13:59:53.205Z,99631.25
2022-08-17T14:02:57.961Z,99633.72
2022-08-17T14:06:00.238Z,99623.59
2022-08-17T14:09:03.297Z,99628.44
2022-08-17T14:12:17.674Z,99628.22
2022-08-17T14:15:21.885Z,99616.78
2022-08-17T14:18:55.448Z,99625.94
2022-08-17T14:21:47.129Z,99615.91
2022-08-17T14:24:51.305Z,99617.75
2022-08-17T14:27:54.230Z,99616.72
2022-08-17T14:30:56.302Z,99617.97
2022-08-17T14:33:59.406Z,99615.28
2022-08-17T14:37:01.879Z,99605.53
2022-08-17T14:40:09.268Z,99612.63
2022-08-17T14:43:11.604Z,99621.88
2022-08-17T14:46:14.021Z,99605.19
2022-08-17T14:49:16.378Z,99616.38
2022-08-17T14:52:22.120Z,99617.09
2022-08-17T14:55:24.349Z,99614.31
2022-08-17T14:58:26.490Z,99612.28
2022-08-17T15:01:29.045Z,99616.88
2022-08-17T15:04:31.224Z,99611.94
2022-08-17T15:07:33.095Z,99608.69
2022-08-17T15:10:35.788Z,99613.06
2022-08-17T15:13:38.179Z,99613.00
2022-08-17T15:16:55.495Z,99611.87
2022-08-17T15:19:57.650Z,99622.94
2022-08-17T15:22:59.851Z,99608.16
2022-08-17T15:26:02.541Z,99609.69
2022-08-17T15:29:04.897Z,99614.59
2022-08-17T15:32:08.408Z,99606.97
2022-08-17T15:35:13.681Z,99614.75
2022-08-17T15:38:15.796Z,99617.47
2022-08-17T15:41:18.550Z,99607.94
2022-08-17T15:44:20.920Z,99605.13
2022-08-17T15:47:32.224Z,99611.59
2022-08-17T15:50:34.892Z,99610.09
2022-08-17T15:53:37.545Z,99610.16
2022-08-17T15:56:39.762Z,99611.28
2022-08-17T15:59:42.080Z,99614.97
2022-08-17T16:03:46.467Z,99619.03
2022-08-17T16:06:11.041Z,99608.62
2022-08-17T16:09:13.043Z,99604.75
2022-08-17T16:12:17.297Z,99619.78
2022-08-17T16:15:19.486Z,99609.19
2022-08-17T16:18:22.474Z,99606.56
2022-08-17T16:21:31.213Z,99615.38
2022-08-17T16:24:57.153Z,99605.63
2022-08-17T16:28:00.789Z,99610.22
2022-08-17T16:31:03.933Z,99594.00
2022-08-17T16:34:18.046Z,99604.09
2022-08-17T16:37:21.077Z,99595.19
2022-08-17T16:40:24.375Z,99591.97
2022-08-17T16:43:27.051Z,99596.66
2022-08-17T16:46:29.642Z,99597.22
2022-08-17T16:49:37.147Z,99594.84
2022-08-17T16:52:42.588Z,99597.06
2022-08-17T16:55:46.025Z,99594.12
2022-08-17T16:58:48.590Z,99602.81
2022-08-17T17:01:55.189Z,99599.31
2022-08-17T17:05:08.508Z,99603.38
2022-08-17T17:08:13.752Z,99599.09
2022-08-17T17:11:21.868Z,99599.63
2022-08-17T17:14:29.874Z,99607.72
2022-08-17T17:17:36.555Z,99605.50
2022-08-17T17:20:47.608Z,99605.22
2022-08-17T17:23:59.525Z,99608.94
2022-08-17T17:27:20.380Z,99612.91
2022-08-17T17:30:24.564Z,99615.25
2022-08-17T17:33:40.754Z,99618.91
2022-08-17T17:36:50.827Z,99622.00
2022-08-17T17:39:56.669Z,99627.50
2022-08-17T17:43:20.393Z,99622.78
2022-08-17T17:46:28.287Z,99619.06
2022-08-17T17:49:34.429Z,99629.44
2022-08-17T17:52:49.042Z,99626.00
2022-08-17T17:55:52.122Z,99627.34
2022-08-17T17:58:54.767Z,99632.28
2022-08-17T18:02:06.385Z,99630.41
2022-08-17T18:05:23.275Z,99627.28
2022-08-17T18:08:33.847Z,99632.91
2022-08-17T18:11:37.120Z,99633.44
2022-08-17T18:14:43.303Z,99630.59
2022-08-17T18:18:00.020Z,99644.91
2022-08-17T18:21:08.316Z,99646.56
2022-08-17T18:24:11.347Z,99652.03
2022-08-17T18:27:26.110Z,99657.78
2022-08-17T18:30:28.975Z,99653.62
2022-08-17T18:33:32.273Z,99654.09
2022-08-17T18:36:39.974Z,99657.41
2022-08-17T18:39:42.393Z,99657.56
2022-08-17T18:43:03.637Z,99655.63
2022-08-17T18:46:28.711Z,99674.19
2022-08-17T18:49:32.524Z,99668.84
2022-08-17T18:52:35.584Z,99676.66
2022-08-17T18:55:38.886Z,99684.50
2022-08-17T18:58:43.027Z,99684.88
2022-08-17T19:01:59.288Z,99687.87
2022-08-17T19:05:03.532Z,99684.34
2022-08-17T19:08:15.441Z,99682.16
2022-08-17T19:11:32.964Z,99687.28
2022-08-17T19:14:36.255Z,99679.25
2022-08-17T19:17:38.268Z,99687.28
2022-08-17T19:20:59.852Z,99685.44
2022-08-17T19:24:06.321Z,99690.41
2022-08-17T19:27:15.101Z,99684.19
2022-08-17T19:30:20.555Z,99687.28
2022-08-17T19:33:23.094Z,99689.19
2022-08-17T19:36:43.584Z,99682.66
2022-08-17T19:39:46.386Z,99697.56
2022-08-17T19:43:00.954Z,99700.81
2022-08-17T19:46:07.414Z,99691.47
2022-08-17T19:49:18.693Z,99684.44
2022-08-17T19:52:39.813Z,99688.59
2022-08-17T19:55:48.941Z,99691.62
2022-08-17T19:58:51.852Z,99688.81
2022-08-17T20:02:01.161Z,99692.88
2022-08-17T20:05:08.784Z,99690.44
2022-08-17T20:08:13.027Z,99688.34
2022-08-17T20:11:26.340Z,99685.47
2022-08-17T20:14:36.225Z,99682.22
2022-08-17T20:17:41.731Z,99681.00
2022-08-17T20:20:48.946Z,99685.56
2022-08-17T20:23:59.209Z,99673.50
2022-08-17T20:27:21.804Z,99680.31
2022-08-17T20:30:37.947Z,99682.59
2022-08-17T20:33:43.382Z,99676.72
2022-08-17T20:37:08.768Z,99675.53
2022-08-17T20:40:13.764Z,99679.06
2022-08-17T20:43:34.221Z,99673.63
2022-08-17T20:46:36.654Z,99673.63
2022-08-17T20:49:39.403Z,99668.72
2022-08-17T20:52:45.093Z,99674.75
2022-08-17T20:55:51.622Z,99663.88
2022-08-17T20:58:54.944Z,99668.09
2022-08-17T21:02:18.621Z,99664.59
2022-08-17T21:05:34.587Z,99666.47
2022-08-17T21:08:59.313Z,99665.84
2022-08-17T21:12:05.791Z,99674.66
2022-08-17T21:15:23.924Z,99674.91
2022-08-17T21:18:40.810Z,99666.28
2022-08-17T21:22:01.549Z,99672.44
2022-08-17T21:25:23.048Z,99683.78
2022-08-17T21:29:00.782Z,99678.47
2022-08-17T21:32:05.416Z,99677.28
2022-08-17T21:35:11.678Z,99677.91
2022-08-17T21:38:18.357Z,99680.56
2022-08-17T21:41:21.174Z,99682.25
2022-08-17T21:44:35.702Z,99682.47
2022-08-17T21:47:44.292Z,99682.66
2022-08-17T21:50:57.720Z,99685.34
2022-08-17T21:54:02.012Z,99691.47
2022-08-17T21:57:06.688Z,99693.56
2022-08-17T22:00:18.982Z,99689.03
2022-08-17T22:03:29.051Z,99703.78
2022-08-17T22:06:37.825Z,99710.56
2022-08-17T22:09:45.073Z,99719.78
2022-08-17T22:13:02.491Z,99716.50
2022-08-17T22:16:15.462Z,99721.47
2022-08-17T22:19:30.321Z,99717.19
2022-08-17T22:22:57.569Z,99721.28
2022-08-17T22:26:02.144Z,99714.91
2022-08-17T22:29:04.480Z,99731.94
2022-08-17T22:32:07.225Z,99728.03
2022-08-17T22:35:32.598Z,99729.88
2022-08-17T22:38:34.816Z,99735.22
2022-08-17T22:41:42.609Z,99735.41
2022-08-17T22:44:48.484Z,99735.81
2022-08-17T22:47:53.961Z,99736.03
2022-08-17T22:51:13.535Z,99743.00
2022-08-17T22:54:36.881Z,99745.88
2022-08-17T22:58:03.735Z,99742.81
2022-08-17T23:01:26.887Z,99742.53
2022-08-17T23:04:38.050Z,99776.72
2022-08-17T23:07:43.267Z,99780.19
2022-08-17T23:10:46.626Z,99779.78
2022-08-17T23:13:49.778Z,99783.66
2022-08-17T23:16:52.185Z,99781.84
2022-08-17T23:19:56.641Z,99786.59
2022-08-17T23:23:00.481Z,99790.69
2022-08-17T23:26:02.542Z,99796.66
2022-08-17T23:29:06.853Z,99797.66
2022-08-17T23:32:11.582Z,99796.41
2022-08-17T23:35:17.491Z,99787.63
2022-08-17T23:38:19.874Z,99786.41
2022-08-17T23:41:27.578Z,99783.53
2022-08-17T23:44:31.536Z,99780.69
2022-08-17T23:47:34.103Z,99774.13
2022-08-17T23:50:38.435Z,99775.97
2022-08-17T23:53:47.859Z,99771.69
2022-08-17T23:56:50.547Z,99775.16
2022-08-17T23:59:52.803Z,99774.34
